Map

Track Data

SID SEASON NUMBER BASIN SUBBASIN NAME ISO_TIME NATURE LAT LON WMO_WIND WMO_PRES WMO_AGENCY TRACK_TYPE DIST2LAND LANDFALL IFLAG USA_AGENCY USA_ATCF_ID USA_LAT USA_LON USA_RECORD USA_STATUS USA_WIND USA_PRES USA_SSHS USA_R34_NE USA_R34_SE USA_R34_SW USA_R34_NW USA_R50_NE USA_R50_SE USA_R50_SW USA_R50_NW USA_R64_NE USA_R64_SE USA_R64_SW USA_R64_NW USA_POCI USA_ROCI USA_RMW USA_EYE TOKYO_LAT TOKYO_LON TOKYO_GRADE TOKYO_WIND TOKYO_PRES TOKYO_R50_DIR TOKYO_R50_LONG TOKYO_R50_SHORT TOKYO_R30_DIR TOKYO_R30_LONG TOKYO_R30_SHORT TOKYO_LAND CMA_LAT CMA_LON CMA_CAT CMA_WIND CMA_PRES HKO_LAT HKO_LON HKO_CAT HKO_WIND HKO_PRES NEWDELHI_LAT NEWDELHI_LON NEWDELHI_GRADE NEWDELHI_WIND NEWDELHI_PRES NEWDELHI_CI NEWDELHI_DP NEWDELHI_POCI REUNION_LAT REUNION_LON REUNION_TYPE REUNION_WIND REUNION_PRES REUNION_TNUM REUNION_CI REUNION_RMW REUNION_R34_NE REUNION_R34_SE REUNION_R34_SW REUNION_R34_NW REUNION_R50_NE REUNION_R50_SE REUNION_R50_SW REUNION_R50_NW REUNION_R64_NE REUNION_R64_SE REUNION_R64_SW REUNION_R64_NW BOM_LAT BOM_LON BOM_TYPE BOM_WIND BOM_PRES BOM_TNUM BOM_CI BOM_RMW BOM_R34_NE BOM_R34_SE BOM_R34_SW BOM_R34_NW BOM_R50_NE BOM_R50_SE BOM_R50_SW BOM_R50_NW BOM_R64_NE BOM_R64_SE BOM_R64_SW BOM_R64_NW BOM_ROCI BOM_POCI BOM_EYE BOM_POS_METHOD BOM_PRES_METHOD NADI_LAT NADI_LON NADI_CAT NADI_WIND NADI_PRES WELLINGTON_LAT WELLINGTON_LON WELLINGTON_WIND WELLINGTON_PRES DS824_LAT DS824_LON DS824_STAGE DS824_WIND DS824_PRES TD9636_LAT TD9636_LON TD9636_STAGE TD9636_WIND TD9636_PRES TD9635_LAT TD9635_LON TD9635_WIND TD9635_PRES TD9635_ROCI NEUMANN_LAT NEUMANN_LON NEUMANN_CLASS NEUMANN_WIND NEUMANN_PRES MLC_LAT MLC_LON MLC_CLASS MLC_WIND MLC_PRES USA_GUST BOM_GUST BOM_GUST_PER REUNION_GUST REUNION_GUST_PER USA_SEAHGT USA_SEARAD_NE USA_SEARAD_SE USA_SEARAD_SW USA_SEARAD_NW STORM_SPEED STORM_DIR
1995260N15255 1995 68 EP MM JULIETTE 1995-09-16 18:00:00 TS 14.8000 -105.000 30 1008 hurdat_epa main 423 421 O_____________ hurdat_epa EP111995 14.8000 -105.000 TD 30 1008 -1 9 290
1995260N15255 1995 68 EP MM JULIETTE 1995-09-16 21:00:00 TS 14.9477 -105.427 main 431 426 P_____________ EP111995 14.9477 -105.427 TD 30 1007 -1 8 291
1995260N15255 1995 68 EP MM JULIETTE 1995-09-17 00:00:00 TS 15.1000 -105.800 30 1006 hurdat_epa main 433 430 O_____________ hurdat_epa EP111995 15.1000 -105.800 TD 30 1006 -1 7 296
1995260N15255 1995 68 EP MM JULIETTE 1995-09-17 03:00:00 TS 15.2574 -106.080 main 435 433 P_____________ EP111995 15.2574 -106.080 TD 30 1006 -1 6 302
1995260N15255 1995 68 EP MM JULIETTE 1995-09-17 06:00:00 TS 15.4000 -106.300 30 1006 hurdat_epa main 440 439 O_____________ hurdat_epa EP111995 15.4000 -106.300 TD 30 1006 -1 5 301
1995260N15255 1995 68 EP MM JULIETTE 1995-09-17 09:00:00 TS 15.5075 -106.515 main 447 445 P_____________ EP111995 15.5075 -106.515 TD 32 1005 -1 4 297
1995260N15255 1995 68 EP MM JULIETTE 1995-09-17 12:00:00 TS 15.6000 -106.700 35 1005 hurdat_epa main 450 445 O_____________ hurdat_epa EP111995 15.6000 -106.700 TS 35 1005 0 4 300
1995260N15255 1995 68 EP MM JULIETTE 1995-09-17 15:00:00 TS 15.6924 -106.843 main 445 440 P_____________ EP111995 15.6924 -106.843 TS 40 1002 0 4 305
1995260N15255 1995 68 EP MM JULIETTE 1995-09-17 18:00:00 TS 15.8000 -107.000 45 1000 hurdat_epa main 446 442 O_____________ hurdat_epa EP111995 15.8000 -107.000 TS 45 1000 0 5 306
1995260N15255 1995 68 EP MM JULIETTE 1995-09-17 21:00:00 TS 15.9575 -107.227 main 439 439 P_____________ EP111995 15.9575 -107.227 TS 47 998 0 6 302
1995260N15255 1995 68 EP MM JULIETTE 1995-09-18 00:00:00 TS 16.1000 -107.500 50 997 hurdat_epa main 449 449 O_____________ hurdat_epa EP111995 16.1000 -107.500 TS 50 997 0 6 291
1995260N15255 1995 68 EP MM JULIETTE 1995-09-18 03:00:00 TS 16.1650 -107.800 main 462 462 P_____________ EP111995 16.1650 -107.800 TS 52 995 0 6 280
1995260N15255 1995 68 EP MM JULIETTE 1995-09-18 06:00:00 TS 16.2000 -108.100 55 994 hurdat_epa main 484 484 O_____________ hurdat_epa EP111995 16.2000 -108.100 TS 55 994 0 5 279
1995260N15255 1995 68 EP MM JULIETTE 1995-09-18 09:00:00 TS 16.2499 -108.358 main 507 499 P_____________ EP111995 16.2499 -108.358 TS 62 989 0 5 282
1995260N15255 1995 68 EP MM JULIETTE 1995-09-18 12:00:00 TS 16.3000 -108.600 70 985 hurdat_epa main 515 515 O_____________ hurdat_epa EP111995 16.3000 -108.600 HU 70 985 1 5 281
1995260N15255 1995 68 EP MM JULIETTE 1995-09-18 15:00:00 TS 16.3425 -108.865 main 538 530 P_____________ EP111995 16.3425 -108.865 HU 77 979 1 5 282
1995260N15255 1995 68 EP MM JULIETTE 1995-09-18 18:00:00 TS 16.4000 -109.100 85 974 hurdat_epa main 545 545 O_____________ hurdat_epa EP111995 16.4000 -109.100 HU 85 974 2 4 293
1995260N15255 1995 68 EP MM JULIETTE 1995-09-18 21:00:00 TS 16.4999 -109.258 main 553 546 P_____________ EP111995 16.4999 -109.258 HU 92 967 2 4 305
1995260N15255 1995 68 EP MM JULIETTE 1995-09-19 00:00:00 TS 16.6000 -109.400 100 960 hurdat_epa main 554 554 O_____________ hurdat_epa EP111995 16.6000 -109.400 HU 100 960 3 3 296
1995260N15255 1995 68 EP MM JULIETTE 1995-09-19 03:00:00 TS 16.6500 -109.578 main 571 564 P_____________ EP111995 16.6500 -109.578 HU 102 959 3 4 285
1995260N15255 1995 68 EP MM JULIETTE 1995-09-19 06:00:00 TS 16.7000 -109.800 105 958 hurdat_epa main 581 581 O_____________ hurdat_epa EP111995 16.7000 -109.800 HU 105 958 3 5 286
1995260N15255 1995 68 EP MM JULIETTE 1995-09-19 09:00:00 TS 16.7849 -110.070 main 601 601 P_____________ EP111995 16.7849 -110.070 HU 105 956 3 6 289
1995260N15255 1995 68 EP MM JULIETTE 1995-09-19 12:00:00 TS 16.9000 -110.400 105 955 hurdat_epa main 622 622 O_____________ hurdat_epa EP111995 16.9000 -110.400 HU 105 955 3 8 290
1995260N15255 1995 68 EP MM JULIETTE 1995-09-19 15:00:00 TS 17.0427 -110.815 main 651 646 P_____________ EP111995 17.0427 -110.815 HU 105 955 3 8 291
1995260N15255 1995 68 EP MM JULIETTE 1995-09-19 18:00:00 TS 17.2000 -111.200 105 955 hurdat_epa main 649 640 O_____________ hurdat_epa EP111995 17.2000 -111.200 HU 105 955 3 6 299
1995260N15255 1995 68 EP MM JULIETTE 1995-09-19 21:00:00 TS 17.3497 -111.400 main 643 623 P_____________ EP111995 17.3497 -111.400 HU 107 952 3 5 308
1995260N15255 1995 68 EP MM JULIETTE 1995-09-20 00:00:00 TS 17.5000 -111.600 110 950 hurdat_epa main 626 614 O_____________ hurdat_epa EP111995 17.5000 -111.600 HU 110 950 3 6 302
1995260N15255 1995 68 EP MM JULIETTE 1995-09-20 03:00:00 TS 17.6724 -111.947 main 614 614 P_____________ EP111995 17.6724 -111.947 HU 115 946 4 8 292
1995260N15255 1995 68 EP MM JULIETTE 1995-09-20 06:00:00 TS 17.8000 -112.400 120 942 hurdat_epa main 622 622 O_____________ hurdat_epa EP111995 17.8000 -112.400 HU 120 942 4 10 279
1995260N15255 1995 68 EP MM JULIETTE 1995-09-20 09:00:00 TS 17.8227 -112.950 main 650 650 P_____________ EP111995 17.8227 -112.950 HU 125 936 4 10 270
1995260N15255 1995 68 EP MM JULIETTE 1995-09-20 12:00:00 TS 17.8000 -113.500 130 930 hurdat_epa main 676 676 O_____________ hurdat_epa EP111995 17.8000 -113.500 HU 130 930 4 10 268
1995260N15255 1995 68 EP MM JULIETTE 1995-09-20 15:00:00 TS 17.7849 -113.953 main 706 706 P_____________ EP111995 17.7849 -113.953 HU 130 931 4 8 270
1995260N15255 1995 68 EP MM JULIETTE 1995-09-20 18:00:00 TS 17.8000 -114.300 130 933 hurdat_epa main 725 725 O_____________ hurdat_epa EP111995 17.8000 -114.300 HU 130 933 4 5 281
1995260N15255 1995 68 EP MM JULIETTE 1995-09-20 21:00:00 TS 17.8848 -114.515 main 729 727 P_____________ EP111995 17.8848 -114.515 HU 125 937 4 4 298
1995260N15255 1995 68 EP MM JULIETTE 1995-09-21 00:00:00 TS 18.0000 -114.700 120 942 hurdat_epa main 734 733 O_____________ hurdat_epa EP111995 18.0000 -114.700 HU 120 942 4 5 296
1995260N15255 1995 68 EP MM JULIETTE 1995-09-21 03:00:00 TS 18.1075 -114.985 main 747 746 P_____________ EP111995 18.1075 -114.985 HU 115 946 4 6 289
1995260N15255 1995 68 EP MM JULIETTE 1995-09-21 06:00:00 TS 18.2000 -115.300 110 950 hurdat_epa main 761 761 O_____________ hurdat_epa EP111995 18.2000 -115.300 HU 110 950 3 6 284
1995260N15255 1995 68 EP MM JULIETTE 1995-09-21 09:00:00 TS 18.2500 -115.600 main 784 777 P_____________ EP111995 18.2500 -115.600 HU 105 955 3 6 280
1995260N15255 1995 68 EP MM JULIETTE 1995-09-21 12:00:00 TS 18.3000 -115.900 100 960 hurdat_epa main 800 800 O_____________ hurdat_epa EP111995 18.3000 -115.900 HU 100 960 3 6 283
1995260N15255 1995 68 EP MM JULIETTE 1995-09-21 15:00:00 TS 18.3850 -116.200 main 817 817 P_____________ EP111995 18.3850 -116.200 HU 97 961 3 6 289
1995260N15255 1995 68 EP MM JULIETTE 1995-09-21 18:00:00 TS 18.5000 -116.500 95 963 hurdat_epa main 828 825 O_____________ hurdat_epa EP111995 18.5000 -116.500 HU 95 963 2 6 295
1995260N15255 1995 68 EP MM JULIETTE 1995-09-21 21:00:00 TS 18.6575 -116.807 main 827 827 P_____________ EP111995 18.6575 -116.807 HU 95 964 2 6 298
1995260N15255 1995 68 EP MM JULIETTE 1995-09-22 00:00:00 TS 18.8000 -117.100 95 965 hurdat_epa main 837 837 O_____________ hurdat_epa EP111995 18.8000 -117.100 HU 95 965 2 5 292
1995260N15255 1995 68 EP MM JULIETTE 1995-09-22 03:00:00 TS 18.8573 -117.328 main 841 841 P_____________ EP111995 18.8573 -117.328 HU 92 967 2 5 282
1995260N15255 1995 68 EP MM JULIETTE 1995-09-22 06:00:00 TS 18.9000 -117.600 90 970 hurdat_epa main 861 861 O_____________ hurdat_epa EP111995 18.9000 -117.600 HU 90 970 2 7 281
1995260N15255 1995 68 EP MM JULIETTE 1995-09-22 09:00:00 TS 18.9928 -118.057 main 888 888 P_____________ EP111995 18.9928 -118.057 HU 87 972 2 9 283
1995260N15255 1995 68 EP MM JULIETTE 1995-09-22 12:00:00 TS 19.1000 -118.500 85 975 hurdat_epa main 909 909 O_____________ hurdat_epa EP111995 19.1000 -118.500 HU 85 975 2 7 287
1995260N15255 1995 68 EP MM JULIETTE 1995-09-22 15:00:00 TS 19.1923 -118.745 main 916 916 P_____________ EP111995 19.1923 -118.745 HU 85 974 2 4 298
1995260N15255 1995 68 EP MM JULIETTE 1995-09-22 18:00:00 TS 19.3000 -118.900 85 974 hurdat_epa main 924 924 O_____________ hurdat_epa EP111995 19.3000 -118.900 HU 85 974 2 4 306
1995260N15255 1995 68 EP MM JULIETTE 1995-09-22 21:00:00 TS 19.4200 -119.073 main 932 924 P_____________ EP111995 19.4200 -119.073 HU 87 972 2 4 317
1995260N15255 1995 68 EP MM JULIETTE 1995-09-23 00:00:00 TS 19.6000 -119.200 90 970 hurdat_epa main 925 911 O_____________ hurdat_epa EP111995 19.6000 -119.200 HU 90 970 2 5 339
1995260N15255 1995 68 EP MM JULIETTE 1995-09-23 03:00:00 TS 19.8925 -119.265 main 912 891 P_____________ EP111995 19.8925 -119.265 HU 90 970 2 6 351
1995260N15255 1995 68 EP MM JULIETTE 1995-09-23 06:00:00 TS 20.2000 -119.300 90 970 hurdat_epa main 891 885 O_____________ hurdat_epa EP111995 20.2000 -119.300 HU 90 970 2 5 349
1995260N15255 1995 68 EP MM JULIETTE 1995-09-23 09:00:00 TS 20.3850 -119.372 main 887 874 P_____________ EP111995 20.3850 -119.372 HU 90 970 2 4 347
1995260N15255 1995 68 EP MM JULIETTE 1995-09-23 12:00:00 TS 20.6000 -119.400 90 970 hurdat_epa main 874 856 O_____________ hurdat_epa EP111995 20.6000 -119.400 HU 90 970 2 6 1
1995260N15255 1995 68 EP MM JULIETTE 1995-09-23 15:00:00 TS 20.9624 -119.360 main 850 809 P_____________ EP111995 20.9624 -119.360 HU 90 970 2 8 13
1995260N15255 1995 68 EP MM JULIETTE 1995-09-23 18:00:00 TS 21.4000 -119.200 90 971 hurdat_epa main 809 755 O_____________ hurdat_epa EP111995 21.4000 -119.200 HU 90 971 2 10 27
1995260N15255 1995 68 EP MM JULIETTE 1995-09-23 21:00:00 TS 21.8427 -118.873 main 755 686 P_____________ EP111995 21.8427 -118.873 HU 87 971 2 11 36
1995260N15255 1995 68 EP MM JULIETTE 1995-09-24 00:00:00 TS 22.3000 -118.500 85 972 hurdat_epa main 686 631 O_____________ hurdat_epa EP111995 22.3000 -118.500 HU 85 972 2 11 33
1995260N15255 1995 68 EP MM JULIETTE 1995-09-24 03:00:00 TS 22.7649 -118.220 main 622 575 P_____________ EP111995 22.7649 -118.220 HU 82 974 1 10 27
1995260N15255 1995 68 EP MM JULIETTE 1995-09-24 06:00:00 TS 23.2000 -118.000 80 977 hurdat_epa main 575 527 O_____________ hurdat_epa EP111995 23.2000 -118.000 HU 80 977 1 9 24
1995260N15255 1995 68 EP MM JULIETTE 1995-09-24 09:00:00 TS 23.6025 -117.820 main 527 495 P_____________ EP111995 23.6025 -117.820 HU 75 980 1 8 21
1995260N15255 1995 68 EP MM JULIETTE 1995-09-24 12:00:00 TS 23.9000 -117.700 70 983 hurdat_epa main 495 480 O_____________ hurdat_epa EP111995 23.9000 -117.700 HU 70 983 1 5 21
1995260N15255 1995 68 EP MM JULIETTE 1995-09-24 15:00:00 TS 24.0450 -117.635 main 480 471 P_____________ EP111995 24.0450 -117.635 HU 67 985 1 2 25
1995260N15255 1995 68 EP MM JULIETTE 1995-09-24 18:00:00 TS 24.1000 -117.600 65 987 hurdat_epa main 471 456 O_____________ hurdat_epa EP111995 24.1000 -117.600 HU 65 987 1 2 34
1995260N15255 1995 68 EP MM JULIETTE 1995-09-24 21:00:00 TS 24.1800 -117.543 main 456 456 P_____________ EP111995 24.1800 -117.543 HU 60 990 0 1 40
1995260N15255 1995 68 EP MM JULIETTE 1995-09-25 00:00:00 TS 24.2000 -117.500 55 994 hurdat_epa main 456 456 O_____________ hurdat_epa EP111995 24.2000 -117.500 TS 55 994 0 1 137
1995260N15255 1995 68 EP MM JULIETTE 1995-09-25 03:00:00 TS 24.1300 -117.500 main 465 465 P_____________ EP111995 24.1300 -117.500 TS 52 995 0 2 172
1995260N15255 1995 68 EP MM JULIETTE 1995-09-25 06:00:00 TS 24.0000 -117.500 50 997 hurdat_epa main 473 473 O_____________ hurdat_epa EP111995 24.0000 -117.500 TS 50 997 0 3 171
1995260N15255 1995 68 EP MM JULIETTE 1995-09-25 09:00:00 TS 23.8650 -117.457 main 482 482 P_____________ EP111995 23.8650 -117.457 TS 47 998 0 3 164
1995260N15255 1995 68 EP MM JULIETTE 1995-09-25 12:00:00 TS 23.7000 -117.400 45 1000 hurdat_epa main 493 493 O_____________ hurdat_epa EP111995 23.7000 -117.400 TS 45 1000 0 4 164
1995260N15255 1995 68 EP MM JULIETTE 1995-09-25 15:00:00 TS 23.5000 -117.342 main 505 505 P_____________ EP111995 23.5000 -117.342 TS 40 1002 0 4 168
1995260N15255 1995 68 EP MM JULIETTE 1995-09-25 18:00:00 TS 23.3000 -117.300 35 1005 hurdat_epa main 524 524 O_____________ hurdat_epa EP111995 23.3000 -117.300 TS 35 1005 0 4 173
1995260N15255 1995 68 EP MM JULIETTE 1995-09-25 21:00:00 TS 23.1275 -117.300 main 543 543 P_____________ EP111995 23.1275 -117.300 TS 32 1005 -1 3 0
1995260N15255 1995 68 EP MM JULIETTE 1995-09-26 00:00:00 TS 23.0000 -117.300 30 1006 hurdat_epa main 552 552 O_____________ hurdat_epa EP111995 23.0000 -117.300 TD 30 1006 -1 2 167
1995260N15255 1995 68 EP MM JULIETTE 1995-09-26 03:00:00 TS 22.9275 -117.257 main 560 550 P_____________ EP111995 22.9275 -117.257 TD 30 1006 -1 1 140
1995260N15255 1995 68 EP MM JULIETTE 1995-09-26 06:00:00 TS 22.9000 -117.200 30 1006 hurdat_epa main 550 550 O_____________ hurdat_epa EP111995 22.9000 -117.200 TD 30 1006 -1 1 117
1995260N15255 1995 68 EP MM JULIETTE 1995-09-26 09:00:00 TS 22.8775 -117.150 main 541 541 P_____________ EP111995 22.8775 -117.150 TD 27 1006 -1 1 90
1995260N15255 1995 68 EP MM JULIETTE 1995-09-26 12:00:00 TS 22.9000 -117.100 25 1006 hurdat_epa main 541 536 O_____________ hurdat_epa EP111995 22.9000 -117.100 TD 25 1006 -1 1 40
1995260N15255 1995 68 EP MM JULIETTE 1995-09-26 15:00:00 TS 22.9825 -117.050 main 536 523 P_____________ EP111995 22.9825 -117.050 TD 25 1006 -1 2 25
1995260N15255 1995 68 EP MM JULIETTE 1995-09-26 18:00:00 TS 23.1000 -117.000 25 1007 hurdat_epa main 523 O_____________ hurdat_epa EP111995 23.1000 -117.000 TD 25 1007 -1 3 20

About IBTrACS Database

This database is a web-friendly format of International Best Track Archive for Climate Stewardship (IBTrACS), a global best track data archive curated by NOAA dating back to 1842.

Updated: 2021-11-26